Time;durP1;ratioP1;P1;durP2;ratioP2;P2;SDS_P1;SDS_P2;PMS_P1;PMS_P2;Temp;Humidity;BMP_temperature;BMP_pressure;BME280_temperature;BME280_humidity;BME280_pressure;Samples;Min_cycle;Max_cycle;Signal;HPM_P1;HPM_P2
2021/06/02 00:01:41;;;;;;;6.10;4.60;;;;;;;;;;5075771;28;20459;-81
2021/06/02 00:04:08;;;;;;;4.20;3.80;;;;;;;;;;5083606;28;20477;-85
2021/06/02 00:06:36;;;;;;;4.10;3.47;;;;;;;;;;5086815;28;20456;-89
2021/06/02 00:09:04;;;;;;;3.60;3.30;;;;;;;;;;5087961;28;20475;-81
2021/06/02 00:11:32;;;;;;;4.20;3.80;;;;;;;;;;5085364;28;20438;-84
2021/06/02 00:13:59;;;;;;;3.70;3.40;;;;;;;;;;5086849;28;20461;-87
2021/06/02 00:16:25;;;;;;;4.43;3.80;;;;;;;;;;5082570;28;20816;-82
2021/06/02 00:18:53;;;;;;;4.10;3.70;;;;;;;;;;5088813;28;20453;-85
2021/06/02 00:21:19;;;;;;;4.03;3.67;;;;;;;;;;5078127;28;20452;-83
2021/06/02 00:23:46;;;;;;;6.80;3.90;;;;;;;;;;5083651;28;20458;-84
2021/06/02 00:26:15;;;;;;;4.30;3.90;;;;;;;;;;5082462;28;20455;-87
2021/06/02 00:28:43;;;;;;;4.27;3.90;;;;;;;;;;5076912;28;20870;-85
2021/06/02 00:31:10;;;;;;;4.50;4.10;;;;;;;;;;5080115;28;20722;-83
2021/06/02 00:33:38;;;;;;;4.13;3.73;;;;;;;;;;5080290;28;20498;-82
2021/06/02 00:36:05;;;;;;;4.33;3.67;;;;;;;;;;5090213;28;21029;-83
2021/06/02 00:38:34;;;;;;;4.30;3.90;;;;;;;;;;5087697;28;20522;-84
2021/06/02 00:41:01;;;;;;;4.67;4.00;;;;;;;;;;5081881;28;20455;-83
2021/06/02 00:43:29;;;;;;;4.50;4.00;;;;;;;;;;5085188;28;20464;-86
2021/06/02 00:45:56;;;;;;;5.77;3.67;;;;;;;;;;5083509;28;20457;-82
2021/06/02 00:48:23;;;;;;;4.97;4.47;;;;;;;;;;5074804;28;22106;-83
2021/06/02 00:50:51;;;;;;;5.20;3.50;;;;;;;;;;5086523;28;20451;-84
2021/06/02 00:53:18;;;;;;;3.93;3.63;;;;;;;;;;5086429;28;20481;-84
2021/06/02 00:55:45;;;;;;;5.27;3.97;;;;;;;;;;5074723;28;20678;-84
2021/06/02 00:58:14;;;;;;;4.57;3.70;;;;;;;;;;5073151;28;20470;-83
2021/06/02 01:00:45;;;;;;;3.90;3.60;;;;;;;;;;5078993;28;20455;-83
2021/06/02 01:03:14;;;;;;;5.00;4.50;;;;;;;;;;5091597;28;20459;-86
2021/06/02 01:05:42;;;;;;;4.60;4.20;;;;;;;;;;5083931;28;20478;-86
2021/06/02 01:08:09;;;;;;;4.40;4.00;;;;;;;;;;5087582;28;20451;-86
2021/06/02 01:10:37;;;;;;;5.57;4.50;;;;;;;;;;5089397;28;20455;-84
2021/06/02 01:13:08;;;;;;;4.87;4.47;;;;;;;;;;5084808;28;20974;-85
2021/06/02 01:15:35;;;;;;;5.47;3.80;;;;;;;;;;5085932;28;20451;-84
2021/06/02 01:18:03;;;;;;;4.73;4.33;;;;;;;;;;5078527;28;20455;-87
2021/06/02 01:20:30;;;;;;;4.80;4.30;;;;;;;;;;5070815;28;20535;-89
2021/06/02 01:22:58;;;;;;;4.97;4.47;;;;;;;;;;5078261;28;20451;-84
2021/06/02 01:25:26;;;;;;;4.17;3.77;;;;;;;;;;5080598;28;20459;-85
2021/06/02 01:27:53;;;;;;;5.00;4.33;;;;;;;;;;5081979;28;20455;-87
2021/06/02 01:30:21;;;;;;;3.60;3.30;;;;;;;;;;5079777;28;20482;-83
2021/06/02 01:33:03;;;;;;;4.23;3.83;;;;;;;;;;5071872;28;20579;-85
2021/06/02 01:35:38;;;;;;;5.10;4.60;;;;;;;;;;5073060;28;20459;-85
2021/06/02 01:38:13;;;;;;;5.60;4.43;;;;;;;;;;5083453;28;20461;-84
2021/06/02 01:40:52;;;;;;;4.43;4.03;;;;;;;;;;5084492;28;20459;-85
2021/06/02 01:43:27;;;;;;;4.10;3.80;;;;;;;;;;5078653;28;20475;-84
2021/06/02 01:46:12;;;;;;;4.43;3.73;;;;;;;;;;5072387;28;20833;-86
2021/06/02 01:48:44;;;;;;;5.00;4.50;;;;;;;;;;5081165;28;20536;-87
2021/06/02 01:51:25;;;;;;;4.90;3.93;;;;;;;;;;5080073;28;20459;-83
2021/06/02 01:54:07;;;;;;;4.40;3.97;;;;;;;;;;5083728;28;20471;-83
2021/06/02 01:56:38;;;;;;;4.97;4.50;;;;;;;;;;5086441;28;20451;-85
2021/06/02 01:59:26;;;;;;;5.87;4.40;;;;;;;;;;5075872;28;20475;-84
2021/06/02 02:01:58;;;;;;;4.27;3.87;;;;;;;;;;5086235;28;20451;-81
2021/06/02 02:04:35;;;;;;;4.80;4.07;;;;;;;;;;5078108;28;20487;-80
2021/06/02 02:07:14;;;;;;;4.90;4.40;;;;;;;;;;5074814;28;20468;-84
2021/06/02 02:09:56;;;;;;;4.40;3.97;;;;;;;;;;5083797;28;20471;-82
2021/06/02 02:12:30;;;;;;;4.50;4.10;;;;;;;;;;5084183;28;20569;-85
2021/06/02 02:15:01;;;;;;;4.70;4.13;;;;;;;;;;5069474;28;20489;-83
2021/06/02 02:17:42;;;;;;;4.20;3.80;;;;;;;;;;5077538;28;20451;-86
2021/06/02 02:20:12;;;;;;;6.97;4.40;;;;;;;;;;5080734;28;20549;-85
2021/06/02 02:22:51;;;;;;;4.43;4.03;;;;;;;;;;5086561;28;20479;-87
2021/06/02 02:25:24;;;;;;;5.00;4.27;;;;;;;;;;5086087;28;20481;-83
2021/06/02 02:27:59;;;;;;;4.40;4.00;;;;;;;;;;5082632;28;21013;-84
2021/06/02 02:30:37;;;;;;;5.30;4.30;;;;;;;;;;5077492;28;21869;-84
2021/06/02 02:33:09;;;;;;;6.50;4.17;;;;;;;;;;5072890;28;20479;-85
2021/06/02 02:35:40;;;;;;;4.20;3.80;;;;;;;;;;5076790;28;20466;-83
2021/06/02 02:38:11;;;;;;;4.37;3.97;;;;;;;;;;5089605;28;20533;-85
2021/06/02 02:40:45;;;;;;;4.80;4.30;;;;;;;;;;5095549;28;20444;-84
2021/06/02 02:43:14;;;;;;;4.57;3.93;;;;;;;;;;5093849;28;20547;-87
2021/06/02 02:45:43;;;;;;;6.40;4.63;;;;;;;;;;5084019;28;20543;-80
2021/06/02 02:48:16;;;;;;;5.90;4.00;;;;;;;;;;5077704;28;20513;-86
2021/06/02 02:50:48;;;;;;;4.33;3.80;;;;;;;;;;5078193;28;20542;-83
2021/06/02 02:53:19;;;;;;;6.83;4.47;;;;;;;;;;5088816;28;20867;-81
2021/06/02 02:55:49;;;;;;;4.20;3.60;;;;;;;;;;5093102;28;20541;-87
2021/06/02 02:58:20;;;;;;;4.37;3.97;;;;;;;;;;5086368;28;20856;-85
2021/06/02 03:00:50;;;;;;;5.30;4.80;;;;;;;;;;5081761;28;20453;-86
2021/06/02 03:03:22;;;;;;;4.13;3.83;;;;;;;;;;5086455;28;20513;-84
2021/06/02 03:05:53;;;;;;;7.23;4.10;;;;;;;;;;5089033;28;20817;-85
2021/06/02 03:08:24;;;;;;;5.00;4.50;;;;;;;;;;5084677;28;20505;-84
2021/06/02 03:10:52;;;;;;;5.00;4.50;;;;;;;;;;5084871;28;20855;-89
2021/06/02 03:13:26;;;;;;;4.77;4.37;;;;;;;;;;5093981;28;20500;-88
2021/06/02 03:15:58;;;;;;;5.43;4.67;;;;;;;;;;5082825;28;20454;-86
2021/06/02 03:18:42;;;;;;;4.63;4.23;;;;;;;;;;5092438;28;20561;-82
2021/06/02 03:21:13;;;;;;;4.77;4.37;;;;;;;;;;5085525;28;21320;-86
2021/06/02 03:23:54;;;;;;;9.93;4.20;;;;;;;;;;5075693;28;20462;-87
2021/06/02 03:26:26;;;;;;;4.90;4.40;;;;;;;;;;5085318;28;20938;-82
2021/06/02 03:28:59;;;;;;;6.10;4.80;;;;;;;;;;5092534;28;20476;-85
2021/06/02 03:31:29;;;;;;;4.83;4.33;;;;;;;;;;5081356;28;20469;-84
2021/06/02 03:34:06;;;;;;;5.33;4.83;;;;;;;;;;5083778;28;21171;-90
2021/06/02 03:36:37;;;;;;;6.53;5.07;;;;;;;;;;5084472;28;20971;-84
2021/06/02 03:39:08;;;;;;;4.97;4.47;;;;;;;;;;5078774;28;21027;-85
2021/06/02 03:41:41;;;;;;;5.20;4.80;;;;;;;;;;5085251;28;20807;-85
2021/06/02 03:44:17;;;;;;;5.60;4.90;;;;;;;;;;5087954;28;20452;-81
2021/06/02 03:46:50;;;;;;;5.17;4.37;;;;;;;;;;5078140;28;20819;-82
2021/06/02 03:49:20;;;;;;;9.47;5.17;;;;;;;;;;5091556;28;20480;-81
2021/06/02 03:51:49;;;;;;;5.40;4.63;;;;;;;;;;5082187;28;20812;-83
2021/06/02 03:54:23;;;;;;;4.87;4.47;;;;;;;;;;5090667;28;20499;-83
2021/06/02 03:57:04;;;;;;;7.30;4.47;;;;;;;;;;5090802;28;20453;-85
2021/06/02 03:59:38;;;;;;;5.13;4.63;;;;;;;;;;5080035;28;20487;-84
2021/06/02 04:02:09;;;;;;;9.00;4.60;;;;;;;;;;5093901;28;20456;-83
2021/06/02 04:04:39;;;;;;;5.90;4.50;;;;;;;;;;5081618;28;20463;-84
2021/06/02 04:07:07;;;;;;;5.20;4.60;;;;;;;;;;5088596;28;20939;-83
2021/06/02 04:09:42;;;;;;;5.13;4.27;;;;;;;;;;5091313;28;20883;-86
2021/06/02 04:12:18;;;;;;;5.00;4.40;;;;;;;;;;5076150;28;20616;-85
2021/06/02 04:14:54;;;;;;;5.40;4.90;;;;;;;;;;5081978;28;20459;-88
2021/06/02 04:17:21;;;;;;;4.70;4.30;;;;;;;;;;5092465;28;20488;-84
2021/06/02 04:19:49;;;;;;;5.00;4.53;;;;;;;;;;5080983;28;20883;-85
2021/06/02 04:22:18;;;;;;;5.23;3.93;;;;;;;;;;5087218;28;20513;-85
2021/06/02 04:24:46;;;;;;;6.90;5.20;;;;;;;;;;5087702;28;20478;-86
2021/06/02 04:27:15;;;;;;;5.00;4.17;;;;;;;;;;5081365;28;20513;-85
2021/06/02 04:29:43;;;;;;;6.03;4.50;;;;;;;;;;5081335;28;20499;-87
2021/06/02 04:32:11;;;;;;;5.60;4.63;;;;;;;;;;5080583;28;20452;-88
2021/06/02 04:34:38;;;;;;;6.23;4.20;;;;;;;;;;5086845;28;20486;-87
2021/06/02 04:37:05;;;;;;;4.70;4.30;;;;;;;;;;5079601;28;20459;-89
2021/06/02 04:39:33;;;;;;;4.90;4.33;;;;;;;;;;5077905;28;21001;-88
2021/06/02 04:42:01;;;;;;;4.90;4.07;;;;;;;;;;5077959;28;20454;-85
2021/06/02 04:44:29;;;;;;;5.63;4.27;;;;;;;;;;5080650;28;20457;-87
2021/06/02 04:46:56;;;;;;;5.27;4.77;;;;;;;;;;5080139;28;20461;-83
2021/06/02 04:49:28;;;;;;;5.60;5.10;;;;;;;;;;5086399;28;20471;-86
2021/06/02 04:52:07;;;;;;;5.73;5.13;;;;;;;;;;5087042;28;20455;-86
2021/06/02 04:54:48;;;;;;;5.20;4.70;;;;;;;;;;5077078;28;20490;-87
2021/06/02 04:57:38;;;;;;;5.07;4.60;;;;;;;;;;5084130;28;20475;-85
2021/06/02 05:00:17;;;;;;;4.80;4.40;;;;;;;;;;5080396;28;20831;-83
2021/06/02 05:02:59;;;;;;;4.60;4.20;;;;;;;;;;5086633;28;20822;-88
2021/06/02 05:05:41;;;;;;;6.27;4.50;;;;;;;;;;5086545;28;20447;-86
2021/06/02 05:08:29;;;;;;;4.60;3.60;;;;;;;;;;5073093;28;20480;-85
2021/06/02 05:11:12;;;;;;;4.43;4.03;;;;;;;;;;5072984;28;20438;-84
2021/06/02 05:13:53;;;;;;;6.30;4.50;;;;;;;;;;5077602;28;20514;-84
2021/06/02 05:16:37;;;;;;;4.50;4.10;;;;;;;;;;5079903;28;20882;-84
2021/06/02 05:19:19;;;;;;;4.43;3.77;;;;;;;;;;5087014;28;20467;-89
2021/06/02 05:22:04;;;;;;;5.37;3.83;;;;;;;;;;5073732;28;20471;-83
2021/06/02 05:24:50;;;;;;;5.67;4.00;;;;;;;;;;5071210;28;20451;-87
2021/06/02 05:27:30;;;;;;;5.90;3.63;;;;;;;;;;5081403;28;20455;-83
2021/06/02 05:30:04;;;;;;;4.47;4.00;;;;;;;;;;5086370;28;20478;-85
2021/06/02 05:32:52;;;;;;;7.60;4.30;;;;;;;;;;5084558;28;20455;-87
2021/06/02 05:35:34;;;;;;;5.93;3.80;;;;;;;;;;5078340;28;20510;-89
2021/06/02 05:38:16;;;;;;;4.30;3.90;;;;;;;;;;5080153;28;20456;-85
2021/06/02 05:40:49;;;;;;;3.90;3.60;;;;;;;;;;5086151;28;20455;-84
2021/06/02 05:43:31;;;;;;;3.90;3.50;;;;;;;;;;5079359;28;20885;-80
2021/06/02 05:46:12;;;;;;;4.20;3.80;;;;;;;;;;5075367;28;20459;-87
2021/06/02 05:48:50;;;;;;;4.27;3.50;;;;;;;;;;5077146;28;20834;-80
2021/06/02 05:51:28;;;;;;;4.40;3.70;;;;;;;;;;5078427;28;20464;-83
2021/06/02 05:54:10;;;;;;;4.27;3.87;;;;;;;;;;5086081;28;20491;-82
2021/06/02 05:56:51;;;;;;;4.33;3.30;;;;;;;;;;5083377;28;20478;-84
2021/06/02 05:59:33;;;;;;;4.00;3.60;;;;;;;;;;5079952;28;20479;-80
2021/06/02 06:02:15;;;;;;;4.60;4.20;;;;;;;;;;5085677;28;20823;-84
2021/06/02 06:04:56;;;;;;;3.50;3.17;;;;;;;;;;5079833;28;20877;-79
2021/06/02 06:07:42;;;;;;;4.40;3.77;;;;;;;;;;5073496;28;20619;-83
2021/06/02 06:10:26;;;;;;;7.90;3.57;;;;;;;;;;5089103;28;20528;-83
2021/06/02 06:13:06;;;;;;;4.20;3.63;;;;;;;;;;5071166;28;20552;-85
2021/06/02 06:15:49;;;;;;;4.50;3.30;;;;;;;;;;5077562;28;20474;-84
2021/06/02 06:18:25;;;;;;;4.50;3.00;;;;;;;;;;5091212;28;20512;-85
2021/06/02 06:21:07;;;;;;;4.63;3.70;;;;;;;;;;5079563;28;20447;-85
2021/06/02 06:23:48;;;;;;;4.90;3.57;;;;;;;;;;5086746;28;20458;-84
2021/06/02 06:26:19;;;;;;;3.57;3.23;;;;;;;;;;5076996;28;20482;-81
2021/06/02 06:28:48;;;;;;;5.33;2.97;;;;;;;;;;5085743;28;20848;-80
2021/06/02 06:31:19;;;;;;;3.70;3.30;;;;;;;;;;5087605;28;20459;-78
2021/06/02 06:33:46;;;;;;;4.43;3.10;;;;;;;;;;5086301;28;20494;-84
2021/06/02 06:36:15;;;;;;;4.10;3.70;;;;;;;;;;5087873;28;20464;-83
2021/06/02 06:38:49;;;;;;;5.10;3.30;;;;;;;;;;5078015;28;20524;-86
2021/06/02 06:41:17;;;;;;;4.40;3.20;;;;;;;;;;5068388;28;20459;-81
2021/06/02 06:43:45;;;;;;;5.00;3.40;;;;;;;;;;5078349;28;20454;-85
2021/06/02 06:46:13;;;;;;;7.77;4.17;;;;;;;;;;5084946;28;20459;-82
2021/06/02 06:48:41;;;;;;;3.10;2.80;;;;;;;;;;5079649;28;20490;-82
2021/06/02 06:51:11;;;;;;;3.70;3.40;;;;;;;;;;5071891;28;20470;-85
2021/06/02 06:53:38;;;;;;;3.37;3.13;;;;;;;;;;5081203;28;20481;-86
2021/06/02 06:56:06;;;;;;;3.40;3.10;;;;;;;;;;5083186;28;20446;-81
2021/06/02 06:58:35;;;;;;;9.07;4.77;;;;;;;;;;5082399;28;20471;-83
2021/06/02 07:01:02;;;;;;;5.97;3.00;;;;;;;;;;5079800;28;20506;-87
2021/06/02 07:03:29;;;;;;;5.97;3.70;;;;;;;;;;5085881;28;20458;-83
2021/06/02 07:05:55;;;;;;;3.43;2.83;;;;;;;;;;5077427;28;20456;-82
2021/06/02 07:08:22;;;;;;;3.23;2.70;;;;;;;;;;5072184;28;20546;-87
2021/06/02 07:10:49;;;;;;;3.70;3.40;;;;;;;;;;5075254;28;20451;-82
2021/06/02 07:13:18;;;;;;;4.40;3.03;;;;;;;;;;5089538;28;20991;-83
2021/06/02 07:15:47;;;;;;;3.60;3.07;;;;;;;;;;5082740;28;20506;-82
2021/06/02 07:18:16;;;;;;;6.63;3.20;;;;;;;;;;5083618;28;20776;-85
2021/06/02 07:20:44;;;;;;;3.37;3.07;;;;;;;;;;5093532;28;20467;-81
2021/06/02 07:23:11;;;;;;;3.40;3.10;;;;;;;;;;5081985;28;20455;-81
2021/06/02 07:25:38;;;;;;;3.40;3.10;;;;;;;;;;5084716;28;20460;-87
2021/06/02 07:28:08;;;;;;;4.13;3.27;;;;;;;;;;5076232;28;20824;-84
2021/06/02 07:30:35;;;;;;;4.30;2.83;;;;;;;;;;5082274;28;20462;-86
2021/06/02 07:33:04;;;;;;;3.40;3.10;;;;;;;;;;5087044;28;20576;-88
2021/06/02 07:35:31;;;;;;;3.97;3.10;;;;;;;;;;5077873;28;20502;-82
2021/06/02 07:37:58;;;;;;;3.90;3.00;;;;;;;;;;5084655;28;20447;-84
2021/06/02 07:40:25;;;;;;;8.53;3.30;;;;;;;;;;5080273;28;20486;-78
2021/06/02 07:42:52;;;;;;;4.50;3.33;;;;;;;;;;5083586;28;20466;-80
2021/06/02 07:45:19;;;;;;;7.10;3.07;;;;;;;;;;5077371;28;20448;-78
2021/06/02 07:47:46;;;;;;;4.23;3.20;;;;;;;;;;5080120;28;20460;-82
2021/06/02 07:50:14;;;;;;;7.27;3.50;;;;;;;;;;5086759;28;20472;-78
2021/06/02 07:52:41;;;;;;;2.40;2.20;;;;;;;;;;5071368;28;20471;-82
2021/06/02 07:55:08;;;;;;;4.60;3.43;;;;;;;;;;5077119;28;20455;-81
2021/06/02 07:57:35;;;;;;;4.23;2.87;;;;;;;;;;5082407;28;20468;-81
2021/06/02 08:00:02;;;;;;;3.37;3.07;;;;;;;;;;5082568;28;20500;-80
2021/06/02 08:02:29;;;;;;;5.47;3.00;;;;;;;;;;5080593;28;20936;-79
2021/06/02 08:04:56;;;;;;;3.03;2.83;;;;;;;;;;5081250;28;21260;-81
2021/06/02 08:07:24;;;;;;;5.50;2.83;;;;;;;;;;5087044;28;20925;-80
2021/06/02 08:09:51;;;;;;;4.30;3.90;;;;;;;;;;5078542;28;20563;-80
2021/06/02 08:12:17;;;;;;;6.03;3.03;;;;;;;;;;5090179;28;20474;-79
2021/06/02 08:14:44;;;;;;;6.13;2.73;;;;;;;;;;5076848;28;20484;-80
2021/06/02 08:17:11;;;;;;;3.33;2.90;;;;;;;;;;5079827;28;20447;-82
2021/06/02 08:19:38;;;;;;;3.30;2.67;;;;;;;;;;5090252;28;20510;-81
2021/06/02 08:22:05;;;;;;;3.67;2.97;;;;;;;;;;5086558;28;20588;-79
2021/06/02 08:24:37;;;;;;;3.03;2.73;;;;;;;;;;5080213;28;20986;-81
2021/06/02 08:27:04;;;;;;;4.77;3.00;;;;;;;;;;5088205;28;20455;-79
2021/06/02 08:29:31;;;;;;;3.10;2.80;;;;;;;;;;5079743;28;20862;-81
2021/06/02 08:31:58;;;;;;;3.70;2.70;;;;;;;;;;5075390;28;20527;-81
2021/06/02 08:34:24;;;;;;;6.23;2.77;;;;;;;;;;5083502;28;20483;-82
2021/06/02 08:36:53;;;;;;;3.20;2.90;;;;;;;;;;5088766;28;20612;-81
2021/06/02 08:39:20;;;;;;;3.13;2.83;;;;;;;;;;5081933;28;20479;-80
2021/06/02 08:41:49;;;;;;;3.50;2.70;;;;;;;;;;5084071;28;20851;-78
2021/06/02 08:44:16;;;;;;;3.60;3.20;;;;;;;;;;5079073;28;20470;-80
2021/06/02 08:46:43;;;;;;;6.27;3.00;;;;;;;;;;5086273;28;20466;-80
2021/06/02 08:49:10;;;;;;;4.00;2.90;;;;;;;;;;5084232;28;20475;-83
2021/06/02 08:51:37;;;;;;;4.60;3.10;;;;;;;;;;5074017;28;20459;-81
2021/06/02 08:54:04;;;;;;;3.07;2.77;;;;;;;;;;5079747;28;20491;-80
2021/06/02 08:56:32;;;;;;;2.83;2.63;;;;;;;;;;5083046;28;20463;-79
2021/06/02 08:59:02;;;;;;;6.53;3.10;;;;;;;;;;5078938;28;20495;-81
2021/06/02 09:01:29;;;;;;;4.00;2.67;;;;;;;;;;5075121;28;21687;-82
2021/06/02 09:03:57;;;;;;;4.87;2.90;;;;;;;;;;5088083;28;20448;-82
2021/06/02 09:06:24;;;;;;;3.40;2.90;;;;;;;;;;5091947;28;20512;-81
2021/06/02 09:08:51;;;;;;;4.93;2.80;;;;;;;;;;5081692;28;20537;-83
2021/06/02 09:11:19;;;;;;;2.83;2.63;;;;;;;;;;5084956;28;20477;-79
2021/06/02 09:13:47;;;;;;;3.40;3.10;;;;;;;;;;5088583;28;21004;-81
2021/06/02 09:16:19;;;;;;;2.80;2.60;;;;;;;;;;5074970;28;20459;-82
2021/06/02 09:18:49;;;;;;;5.10;2.90;;;;;;;;;;5076208;28;20496;-78
2021/06/02 09:21:16;;;;;;;2.60;2.40;;;;;;;;;;5088768;28;20443;-84
2021/06/02 09:23:44;;;;;;;5.37;3.00;;;;;;;;;;5080697;28;20486;-81
2021/06/02 09:26:15;;;;;;;4.33;3.30;;;;;;;;;;5071799;28;20480;-81
2021/06/02 09:28:46;;;;;;;3.87;2.93;;;;;;;;;;5087616;28;20469;-80
2021/06/02 09:31:27;;;;;;;2.80;2.60;;;;;;;;;;5090382;28;20542;-80
2021/06/02 09:33:56;;;;;;;3.90;3.13;;;;;;;;;;5081638;28;20942;-76
2021/06/02 09:36:26;;;;;;;4.90;2.73;;;;;;;;;;5088754;28;20501;-83
2021/06/02 09:38:54;;;;;;;5.27;3.00;;;;;;;;;;5079177;28;20550;-82
2021/06/02 09:41:21;;;;;;;3.50;2.90;;;;;;;;;;5070833;28;20443;-82
2021/06/02 09:43:47;;;;;;;3.13;2.23;;;;;;;;;;5070223;28;20455;-82
2021/06/02 09:46:17;;;;;;;3.40;2.50;;;;;;;;;;5073060;28;20486;-82
2021/06/02 09:48:53;;;;;;;4.50;2.87;;;;;;;;;;5078771;28;20825;-83
2021/06/02 09:51:34;;;;;;;2.70;2.50;;;;;;;;;;5085117;28;20459;-83
2021/06/02 09:54:03;;;;;;;5.70;3.03;;;;;;;;;;5076260;28;20499;-82
2021/06/02 09:56:38;;;;;;;3.60;2.40;;;;;;;;;;5078107;28;20512;-81
2021/06/02 09:59:08;;;;;;;3.47;2.93;;;;;;;;;;5085792;28;20542;-82
2021/06/02 10:01:49;;;;;;;3.77;2.57;;;;;;;;;;5073176;28;20484;-80
2021/06/02 10:04:16;;;;;;;4.10;2.30;;;;;;;;;;5083404;28;20550;-81
2021/06/02 10:06:47;;;;;;;5.17;2.50;;;;;;;;;;5077061;28;20452;-81
2021/06/02 10:09:15;;;;;;;3.40;2.50;;;;;;;;;;5090585;28;20471;-84
2021/06/02 10:11:56;;;;;;;6.27;2.60;;;;;;;;;;5092208;28;20944;-82
2021/06/02 10:14:23;;;;;;;3.20;2.27;;;;;;;;;;5078480;28;21030;-82
2021/06/02 10:16:49;;;;;;;3.93;2.70;;;;;;;;;;5085818;28;20538;-82
2021/06/02 10:19:16;;;;;;;3.27;2.80;;;;;;;;;;5084821;28;20476;-77
2021/06/02 10:21:44;;;;;;;2.97;2.50;;;;;;;;;;5081135;28;20455;-80
2021/06/02 10:24:11;;;;;;;3.33;2.97;;;;;;;;;;5080378;28;20467;-76
2021/06/02 10:26:39;;;;;;;3.23;2.40;;;;;;;;;;5081645;28;20456;-82
2021/06/02 10:29:07;;;;;;;3.33;2.43;;;;;;;;;;5084484;28;20489;-76
2021/06/02 10:31:33;;;;;;;5.53;2.50;;;;;;;;;;5083350;28;20856;-79
2021/06/02 10:34:00;;;;;;;3.60;2.60;;;;;;;;;;5077972;28;21229;-80
2021/06/02 10:36:28;;;;;;;5.30;2.40;;;;;;;;;;5088541;28;20456;-81
2021/06/02 10:38:56;;;;;;;2.90;2.60;;;;;;;;;;5072899;28;20475;-80
2021/06/02 10:41:25;;;;;;;3.40;3.10;;;;;;;;;;5073523;28;20632;-80
2021/06/02 10:43:54;;;;;;;3.20;2.67;;;;;;;;;;5082630;28;20459;-80
2021/06/02 10:46:23;;;;;;;3.10;2.53;;;;;;;;;;5082409;28;20849;-80
2021/06/02 10:48:52;;;;;;;3.50;2.70;;;;;;;;;;5072512;28;20551;-79
2021/06/02 10:51:27;;;;;;;3.10;2.53;;;;;;;;;;5086300;28;22985;-75
2021/06/02 10:54:08;;;;;;;3.50;2.77;;;;;;;;;;5086530;28;20487;-77
2021/06/02 10:56:35;;;;;;;2.80;2.60;;;;;;;;;;5081028;28;20455;-76
2021/06/02 10:59:04;;;;;;;3.17;2.70;;;;;;;;;;5081516;28;20471;-79
2021/06/02 11:01:31;;;;;;;2.90;2.37;;;;;;;;;;5079161;28;20456;-84
2021/06/02 11:04:12;;;;;;;3.40;2.70;;;;;;;;;;5088975;28;20451;-81
2021/06/02 11:06:40;;;;;;;3.00;2.70;;;;;;;;;;5087671;28;20948;-85
2021/06/02 11:09:09;;;;;;;3.00;2.70;;;;;;;;;;5074417;28;20475;-78
2021/06/02 11:11:37;;;;;;;2.80;2.33;;;;;;;;;;5091925;28;20801;-79
2021/06/02 11:14:20;;;;;;;3.27;2.80;;;;;;;;;;5080999;28;20493;-79
2021/06/02 11:16:49;;;;;;;3.43;2.20;;;;;;;;;;5080424;28;20541;-77
2021/06/02 11:19:16;;;;;;;2.97;2.13;;;;;;;;;;5088400;28;21057;-77
2021/06/02 11:21:45;;;;;;;3.07;2.30;;;;;;;;;;5079617;28;20460;-88
2021/06/02 11:24:29;;;;;;;4.13;2.63;;;;;;;;;;5085104;28;20463;-80
2021/06/02 11:27:07;;;;;;;3.20;2.37;;;;;;;;;;5085613;28;20490;-82
2021/06/02 11:29:34;;;;;;;2.47;2.20;;;;;;;;;;5081540;28;20979;-85
2021/06/02 11:32:14;;;;;;;3.10;2.73;;;;;;;;;;5087598;28;20451;-84
2021/06/02 11:34:41;;;;;;;2.30;2.00;;;;;;;;;;5084193;28;20490;-82
2021/06/02 11:37:08;;;;;;;2.80;2.50;;;;;;;;;;5086563;28;20510;-83
2021/06/02 11:39:37;;;;;;;3.37;2.40;;;;;;;;;;5084976;28;20560;-84
2021/06/02 11:42:04;;;;;;;4.10;2.20;;;;;;;;;;5080230;28;20456;-85
2021/06/02 11:44:32;;;;;;;2.53;2.33;;;;;;;;;;5090114;28;20454;-84
2021/06/02 11:47:09;;;;;;;2.37;2.17;;;;;;;;;;5083611;28;20452;-84
2021/06/02 11:49:38;;;;;;;2.17;1.97;;;;;;;;;;5077389;22;21062;-87
2021/06/02 11:52:07;;;;;;;3.90;2.20;;;;;;;;;;5042815;28;20548;-83
2021/06/02 11:54:46;;;;;;;3.53;2.30;;;;;;;;;;5048307;28;20939;-83
2021/06/02 11:57:28;;;;;;;6.03;2.03;;;;;;;;;;5041325;28;20490;-86
2021/06/02 11:59:55;;;;;;;4.13;2.20;;;;;;;;;;5042848;28;20498;-87
2021/06/02 12:02:22;;;;;;;6.70;2.20;;;;;;;;;;5071311;28;20458;-82
2021/06/02 12:04:50;;;;;;;4.90;2.20;;;;;;;;;;5071578;28;20971;-85
2021/06/02 12:07:20;;;;;;;2.63;2.30;;;;;;;;;;5070990;28;20555;-88
2021/06/02 12:09:48;;;;;;;2.00;1.90;;;;;;;;;;5074404;28;20484;-88
2021/06/02 12:12:15;;;;;;;2.20;2.00;;;;;;;;;;5042189;28;20461;-87
2021/06/02 12:14:42;;;;;;;2.90;2.17;;;;;;;;;;5059792;28;20576;-86
2021/06/02 12:17:09;;;;;;;3.33;2.50;;;;;;;;;;5069804;28;20866;-86
2021/06/02 12:19:36;;;;;;;2.27;2.07;;;;;;;;;;5059212;28;20572;-85
2021/06/02 12:22:12;;;;;;;2.87;2.57;;;;;;;;;;5061459;28;20456;-88
2021/06/02 12:24:39;;;;;;;4.70;2.10;;;;;;;;;;5071626;28;20460;-88
2021/06/02 12:27:06;;;;;;;2.83;2.63;;;;;;;;;;5058760;28;21170;-87
2021/06/02 12:29:33;;;;;;;2.80;2.07;;;;;;;;;;5056959;28;20486;-90
2021/06/02 12:32:00;;;;;;;2.83;2.17;;;;;;;;;;5063994;28;20511;-85
2021/06/02 12:34:32;;;;;;;3.13;2.33;;;;;;;;;;5068435;28;20571;-79
2021/06/02 12:37:02;;;;;;;3.03;2.60;;;;;;;;;;5053980;28;20847;-79
2021/06/02 12:39:33;;;;;;;2.37;2.17;;;;;;;;;;5042729;28;20978;-78
2021/06/02 12:42:00;;;;;;;5.10;2.30;;;;;;;;;;5037384;28;20533;-78
2021/06/02 12:44:28;;;;;;;5.70;2.40;;;;;;;;;;5046960;28;20806;-77
2021/06/02 12:46:55;;;;;;;2.80;2.07;;;;;;;;;;5068881;28;20460;-82
2021/06/02 12:49:22;;;;;;;5.03;2.87;;;;;;;;;;5056231;28;20489;-83
2021/06/02 12:52:15;;;;;;;2.97;2.30;;;;;;;;;;5062596;28;20466;-85
2021/06/02 12:54:43;;;;;;;3.80;2.60;;;;;;;;;;5050502;28;20827;-79
2021/06/02 12:57:10;;;;;;;6.70;2.50;;;;;;;;;;5054182;28;20448;-80
2021/06/02 12:59:39;;;;;;;5.50;2.73;;;;;;;;;;5066291;28;20486;-84
2021/06/02 13:02:07;;;;;;;2.97;2.50;;;;;;;;;;5062876;28;20459;-77
2021/06/02 13:04:35;;;;;;;7.60;3.50;;;;;;;;;;5064016;28;20452;-81
2021/06/02 13:07:02;;;;;;;2.63;2.20;;;;;;;;;;5062477;28;20448;-79
2021/06/02 13:09:31;;;;;;;3.70;2.50;;;;;;;;;;5059020;28;20480;-84
2021/06/02 13:12:00;;;;;;;3.00;2.53;;;;;;;;;;5054401;28;20448;-85
2021/06/02 13:14:35;;;;;;;2.00;1.80;;;;;;;;;;5061995;28;21046;-78
2021/06/02 13:17:02;;;;;;;2.50;2.03;;;;;;;;;;5056946;28;20452;-78
2021/06/02 13:19:36;;;;;;;2.33;1.80;;;;;;;;;;5067401;28;20476;-83
2021/06/02 13:22:03;;;;;;;4.70;2.70;;;;;;;;;;5058159;28;20459;-82
2021/06/02 13:24:36;;;;;;;2.57;2.37;;;;;;;;;;5054169;28;20467;-81
2021/06/02 13:27:05;;;;;;;2.87;2.20;;;;;;;;;;5058884;28;20461;-83
2021/06/02 13:29:32;;;;;;;2.30;1.83;;;;;;;;;;5040186;28;20498;-79
2021/06/02 13:31:59;;;;;;;3.07;2.33;;;;;;;;;;5054558;28;20460;-78
2021/06/02 13:34:46;;;;;;;2.40;2.20;;;;;;;;;;5065634;28;20486;-82
2021/06/02 13:37:23;;;;;;;2.80;2.23;;;;;;;;;;5056964;28;20544;-84
2021/06/02 13:40:05;;;;;;;2.97;2.47;;;;;;;;;;5043303;28;20472;-81
2021/06/02 13:42:33;;;;;;;3.50;2.70;;;;;;;;;;5045830;28;20460;-82
2021/06/02 13:44:59;;;;;;;2.43;2.20;;;;;;;;;;5069932;28;20456;-86
2021/06/02 13:47:30;;;;;;;2.10;1.90;;;;;;;;;;5064995;28;20794;-81
2021/06/02 13:50:09;;;;;;;2.27;2.07;;;;;;;;;;5063581;28;20539;-81
2021/06/02 13:52:38;;;;;;;4.40;2.37;;;;;;;;;;5057718;28;20467;-85
2021/06/02 13:55:09;;;;;;;2.10;1.90;;;;;;;;;;5060488;28;20841;-81
2021/06/02 13:57:39;;;;;;;2.40;2.20;;;;;;;;;;5046184;28;20449;-78
2021/06/02 14:00:06;;;;;;;5.83;1.97;;;;;;;;;;5070705;28;20833;-87
2021/06/02 14:02:36;;;;;;;2.03;1.83;;;;;;;;;;5063591;28;20468;-80
2021/06/02 14:05:04;;;;;;;3.40;1.87;;;;;;;;;;5064969;28;20513;-83
2021/06/02 14:07:31;;;;;;;2.20;2.00;;;;;;;;;;5053660;28;20452;-87
2021/06/02 14:09:58;;;;;;;1.67;1.57;;;;;;;;;;5063525;28;20471;-82
2021/06/02 14:12:25;;;;;;;2.90;2.00;;;;;;;;;;5070289;28;20791;-82
2021/06/02 14:14:55;;;;;;;3.07;2.10;;;;;;;;;;5067669;28;20902;-81
2021/06/02 14:17:22;;;;;;;13.70;2.73;;;;;;;;;;5070730;28;20463;-80
2021/06/02 14:19:49;;;;;;;2.10;1.90;;;;;;;;;;5067223;28;20479;-77
2021/06/02 14:22:16;;;;;;;2.20;2.00;;;;;;;;;;5067541;28;20441;-78
2021/06/02 14:24:44;;;;;;;1.90;1.80;;;;;;;;;;5077284;28;20949;-82
2021/06/02 14:27:11;;;;;;;2.60;2.30;;;;;;;;;;5072528;28;20539;-79
2021/06/02 14:29:38;;;;;;;3.73;2.43;;;;;;;;;;5062979;28;20471;-84
2021/06/02 14:32:10;;;;;;;3.30;2.70;;;;;;;;;;5062791;28;20450;-79
2021/06/02 14:34:37;;;;;;;2.40;2.17;;;;;;;;;;5075690;28;20491;-81
2021/06/02 14:37:04;;;;;;;3.80;1.83;;;;;;;;;;5056064;28;20467;-83
2021/06/02 14:39:31;;;;;;;6.90;2.33;;;;;;;;;;5073720;28;20480;-80
2021/06/02 14:41:58;;;;;;;2.93;2.63;;;;;;;;;;5075472;28;20456;-87
2021/06/02 14:44:25;;;;;;;2.50;2.10;;;;;;;;;;5070381;28;20448;-82
2021/06/02 14:46:52;;;;;;;2.30;1.90;;;;;;;;;;5075241;28;20820;-79
2021/06/02 14:49:20;;;;;;;2.10;1.90;;;;;;;;;;5070757;28;20921;-77
2021/06/02 14:51:47;;;;;;;3.17;2.30;;;;;;;;;;5058826;28;20480;-80
2021/06/02 14:54:13;;;;;;;4.90;2.30;;;;;;;;;;5057633;28;20484;-81
2021/06/02 14:56:40;;;;;;;2.43;1.90;;;;;;;;;;5065933;28;20452;-80
2021/06/02 14:59:07;;;;;;;3.00;2.20;;;;;;;;;;5073326;28;20536;-78
2021/06/02 15:01:34;;;;;;;2.80;2.27;;;;;;;;;;5067027;28;20531;-80
2021/06/02 15:04:01;;;;;;;3.90;2.50;;;;;;;;;;5063236;28;20987;-81
2021/06/02 15:06:29;;;;;;;2.17;1.97;;;;;;;;;;5060924;28;20448;-81